sensor_id;sensor_type;location;lat;lon;timestamp;pressure;altitude;pressure_sealevel;temperature;humidity
71907;BME280;59781;52.090;5.030;2023-04-07T00:31:11;101439.97;;;8.29;100.00
71907;BME280;59781;52.090;5.030;2023-04-07T01:35:22;101455.81;;;8.42;100.00
71907;BME280;59781;52.090;5.030;2023-04-07T02:38:45;101457.91;;;8.19;100.00
71907;BME280;59781;52.090;5.030;2023-04-07T04:54:29;101503.38;;;8.30;100.00
71907;BME280;59781;52.090;5.030;2023-04-07T04:56:56;101507.34;;;8.26;100.00
71907;BME280;59781;52.090;5.030;2023-04-07T04:59:22;101510.59;;;8.30;100.00
71907;BME280;59781;52.090;5.030;2023-04-07T05:01:57;101503.97;;;8.44;100.00
71907;BME280;59781;52.090;5.030;2023-04-07T05:04:22;101502.44;;;8.41;100.00
71907;BME280;59781;52.090;5.030;2023-04-07T05:06:58;101512.97;;;8.33;100.00
71907;BME280;59781;52.090;5.030;2023-04-07T05:09:27;101510.78;;;8.67;100.00
71907;BME280;59781;52.090;5.030;2023-04-07T05:11:53;101519.09;;;8.54;100.00
71907;BME280;59781;52.090;5.030;2023-04-07T05:14:20;101512.47;;;8.49;100.00
71907;BME280;59781;52.090;5.030;2023-04-07T05:16:52;101508.50;;;8.53;100.00
71907;BME280;59781;52.090;5.030;2023-04-07T05:19:22;101522.78;;;8.53;100.00
71907;BME280;59781;52.090;5.030;2023-04-07T05:21:50;101519.09;;;8.45;100.00
71907;BME280;59781;52.090;5.030;2023-04-07T05:24:19;101518.84;;;8.48;100.00
71907;BME280;59781;52.090;5.030;2023-04-07T05:26:49;101523.06;;;8.41;100.00
71907;BME280;59781;52.090;5.030;2023-04-07T05:29:15;101517.00;;;8.48;100.00
71907;BME280;59781;52.090;5.030;2023-04-07T05:31:41;101523.91;;;8.51;100.00
71907;BME280;59781;52.090;5.030;2023-04-07T05:34:10;101519.53;;;8.59;100.00
71907;BME280;59781;52.090;5.030;2023-04-07T05:36:43;101526.88;;;8.48;100.00
71907;BME280;59781;52.090;5.030;2023-04-07T05:39:08;101533.34;;;8.45;100.00
71907;BME280;59781;52.090;5.030;2023-04-07T05:41:34;101531.56;;;8.46;100.00
71907;BME280;59781;52.090;5.030;2023-04-07T05:44:01;101534.09;;;8.47;100.00
71907;BME280;59781;52.090;5.030;2023-04-07T05:46:29;101533.09;;;8.68;100.00
71907;BME280;59781;52.090;5.030;2023-04-07T05:48:56;101539.47;;;8.67;100.00
71907;BME280;59781;52.090;5.030;2023-04-07T05:51:24;101534.50;;;8.62;100.00
71907;BME280;59781;52.090;5.030;2023-04-07T05:53:52;101529.13;;;8.72;100.00
71907;BME280;59781;52.090;5.030;2023-04-07T05:56:20;101534.09;;;8.38;100.00
71907;BME280;59781;52.090;5.030;2023-04-07T05:58:46;101535.78;;;8.39;100.00
71907;BME280;59781;52.090;5.030;2023-04-07T06:01:13;101546.94;;;8.44;100.00
71907;BME280;59781;52.090;5.030;2023-04-07T06:03:40;101540.31;;;8.48;100.00
71907;BME280;59781;52.090;5.030;2023-04-07T06:06:15;101538.72;;;8.45;100.00
71907;BME280;59781;52.090;5.030;2023-04-07T06:08:41;101536.94;;;8.55;100.00
71907;BME280;59781;52.090;5.030;2023-04-07T06:11:07;101538.47;;;8.39;100.00
71907;BME280;59781;52.090;5.030;2023-04-07T06:13:33;101549.34;;;8.37;100.00
71907;BME280;59781;52.090;5.030;2023-04-07T06:15:59;101550.06;;;8.58;100.00
71907;BME280;59781;52.090;5.030;2023-04-07T06:18:25;101552.16;;;8.55;100.00
71907;BME280;59781;52.090;5.030;2023-04-07T06:20:50;101555.13;;;8.42;100.00
71907;BME280;59781;52.090;5.030;2023-04-07T06:23:17;101551.75;;;8.59;100.00
71907;BME280;59781;52.090;5.030;2023-04-07T06:25:43;101558.97;;;8.59;100.00
71907;BME280;59781;52.090;5.030;2023-04-07T06:28:09;101559.25;;;8.66;100.00
71907;BME280;59781;52.090;5.030;2023-04-07T06:30:35;101561.06;;;8.84;100.00
71907;BME280;59781;52.090;5.030;2023-04-07T06:33:03;101559.13;;;8.67;100.00
71907;BME280;59781;52.090;5.030;2023-04-07T06:35:29;101561.94;;;8.75;100.00
71907;BME280;59781;52.090;5.030;2023-04-07T06:37:54;101561.06;;;8.75;100.00
71907;BME280;59781;52.090;5.030;2023-04-07T06:40:21;101560.09;;;8.66;100.00
71907;BME280;59781;52.090;5.030;2023-04-07T06:42:46;101572.25;;;8.80;100.00
71907;BME280;59781;52.090;5.030;2023-04-07T06:45:23;101571.69;;;8.76;100.00
71907;BME280;59781;52.090;5.030;2023-04-07T06:47:49;101574.50;;;8.75;100.00
71907;BME280;59781;52.090;5.030;2023-04-07T06:50:14;101567.31;;;8.66;100.00
71907;BME280;59781;52.090;5.030;2023-04-07T06:52:42;101570.97;;;8.84;100.00
71907;BME280;59781;52.090;5.030;2023-04-07T06:55:08;101575.38;;;8.75;100.00
71907;BME280;59781;52.090;5.030;2023-04-07T06:57:37;101583.28;;;8.86;100.00
71907;BME280;59781;52.090;5.030;2023-04-07T07:00:03;101579.84;;;8.94;100.00
71907;BME280;59781;52.090;5.030;2023-04-07T07:02:32;101586.22;;;8.83;100.00
71907;BME280;59781;52.090;5.030;2023-04-07T07:05:00;101584.28;;;8.95;100.00
71907;BME280;59781;52.090;5.030;2023-04-07T07:07:26;101595.44;;;8.81;100.00
71907;BME280;59781;52.090;5.030;2023-04-07T07:09:52;101595.44;;;8.90;100.00
71907;BME280;59781;52.090;5.030;2023-04-07T07:12:18;101596.56;;;8.59;100.00
71907;BME280;59781;52.090;5.030;2023-04-07T07:14:44;101588.50;;;8.88;100.00
71907;BME280;59781;52.090;5.030;2023-04-07T07:17:10;101595.44;;;8.90;100.00
71907;BME280;59781;52.090;5.030;2023-04-07T07:19:35;101596.56;;;8.88;100.00
71907;BME280;59781;52.090;5.030;2023-04-07T07:22:01;101599.94;;;8.90;100.00
71907;BME280;59781;52.090;5.030;2023-04-07T07:24:29;101605.19;;;9.01;100.00
71907;BME280;59781;52.090;5.030;2023-04-07T07:26:59;101610.16;;;8.96;100.00
71907;BME280;59781;52.090;5.030;2023-04-07T07:29:26;101614.38;;;8.79;100.00
71907;BME280;59781;52.090;5.030;2023-04-07T07:31:52;101619.31;;;9.13;100.00
71907;BME280;59781;52.090;5.030;2023-04-07T07:34:18;101618.06;;;9.07;100.00
71907;BME280;59781;52.090;5.030;2023-04-07T07:36:43;101608.84;;;8.90;100.00
71907;BME280;59781;52.090;5.030;2023-04-07T07:39:09;101620.03;;;8.96;100.00
71907;BME280;59781;52.090;5.030;2023-04-07T07:41:35;101618.47;;;8.83;100.00
71907;BME280;59781;52.090;5.030;2023-04-07T07:44:01;101630.78;;;8.86;100.00
71907;BME280;59781;52.090;5.030;2023-04-07T07:46:27;101625.81;;;9.01;100.00
71907;BME280;59781;52.090;5.030;2023-04-07T07:48:53;101631.63;;;8.96;100.00
71907;BME280;59781;52.090;5.030;2023-04-07T07:51:18;101633.59;;;8.94;100.00
71907;BME280;59781;52.090;5.030;2023-04-07T07:53:44;101635.72;;;8.90;100.00
71907;BME280;59781;52.090;5.030;2023-04-07T07:56:10;101636.00;;;8.97;100.00
71907;BME280;59781;52.090;5.030;2023-04-07T07:58:36;101628.22;;;9.04;100.00
71907;BME280;59781;52.090;5.030;2023-04-07T08:01:02;101637.84;;;9.16;100.00
71907;BME280;59781;52.090;5.030;2023-04-07T08:03:29;101644.78;;;9.09;100.00
71907;BME280;59781;52.090;5.030;2023-04-07T08:05:55;101638.69;;;9.36;100.00
71907;BME280;59781;52.090;5.030;2023-04-07T08:08:21;101637.25;;;9.41;100.00
71907;BME280;59781;52.090;5.030;2023-04-07T08:10:46;101641.38;;;9.36;100.00
71907;BME280;59781;52.090;5.030;2023-04-07T08:13:13;101647.13;;;9.60;100.00
71907;BME280;59781;52.090;5.030;2023-04-07T08:15:39;101647.28;;;9.39;100.00
71907;BME280;59781;52.090;5.030;2023-04-07T08:18:05;101645.06;;;9.25;100.00
71907;BME280;59781;52.090;5.030;2023-04-07T08:20:32;101652.66;;;9.39;100.00
71907;BME280;59781;52.090;5.030;2023-04-07T08:22:59;101646.44;;;9.48;100.00
71907;BME280;59781;52.090;5.030;2023-04-07T08:25:27;101658.44;;;9.64;100.00
71907;BME280;59781;52.090;5.030;2023-04-07T08:27:53;101655.47;;;9.57;100.00
71907;BME280;59781;52.090;5.030;2023-04-07T08:30:22;101655.78;;;9.54;100.00
71907;BME280;59781;52.090;5.030;2023-04-07T08:32:48;101655.31;;;9.68;100.00
71907;BME280;59781;52.090;5.030;2023-04-07T08:35:14;101658.13;;;9.76;100.00
71907;BME280;59781;52.090;5.030;2023-04-07T08:37:40;101662.53;;;9.68;100.00
71907;BME280;59781;52.090;5.030;2023-04-07T08:40:07;101653.25;;;9.90;100.00
71907;BME280;59781;52.090;5.030;2023-04-07T08:42:34;101662.91;;;9.83;100.00
71907;BME280;59781;52.090;5.030;2023-04-07T08:45:06;101663.53;;;9.67;100.00
71907;BME280;59781;52.090;5.030;2023-04-07T08:47:34;101668.31;;;9.73;100.00
71907;BME280;59781;52.090;5.030;2023-04-07T08:50:05;101668.22;;;9.55;100.00
71907;BME280;59781;52.090;5.030;2023-04-07T08:55:17;101666.38;;;9.56;100.00
71907;BME280;59781;52.090;5.030;2023-04-07T08:57:44;101672.88;;;9.53;100.00
71907;BME280;59781;52.090;5.030;2023-04-07T09:00:11;101678.00;;;9.46;100.00
71907;BME280;59781;52.090;5.030;2023-04-07T09:02:40;101678.41;;;9.52;100.00
71907;BME280;59781;52.090;5.030;2023-04-07T09:05:12;101683.22;;;9.48;100.00
71907;BME280;59781;52.090;5.030;2023-04-07T09:11:36;101683.41;;;10.03;100.00
71907;BME280;59781;52.090;5.030;2023-04-07T09:14:03;101683.09;;;10.06;100.00
71907;BME280;59781;52.090;5.030;2023-04-07T09:16:29;101690.34;;;9.96;100.00
71907;BME280;59781;52.090;5.030;2023-04-07T09:18:55;101685.69;;;9.88;100.00
71907;BME280;59781;52.090;5.030;2023-04-07T09:21:21;101684.00;;;9.87;100.00
71907;BME280;59781;52.090;5.030;2023-04-07T09:23:49;101689.06;;;10.00;100.00
71907;BME280;59781;52.090;5.030;2023-04-07T09:28:46;101688.34;;;9.98;100.00
71907;BME280;59781;52.090;5.030;2023-04-07T09:31:18;101694.63;;;9.89;100.00
71907;BME280;59781;52.090;5.030;2023-04-07T09:33:47;101691.38;;;9.85;100.00
71907;BME280;59781;52.090;5.030;2023-04-07T09:36:14;101694.94;;;9.76;100.00
71907;BME280;59781;52.090;5.030;2023-04-07T09:38:42;101695.63;;;9.78;100.00
71907;BME280;59781;52.090;5.030;2023-04-07T09:41:10;101694.44;;;10.00;100.00
71907;BME280;59781;52.090;5.030;2023-04-07T09:43:42;101686.38;;;9.90;100.00
71907;BME280;59781;52.090;5.030;2023-04-07T09:46:18;101689.78;;;9.92;100.00
71907;BME280;59781;52.090;5.030;2023-04-07T09:48:45;101691.56;;;9.74;100.00
71907;BME280;59781;52.090;5.030;2023-04-07T09:51:12;101690.72;;;10.11;100.00
71907;BME280;59781;52.090;5.030;2023-04-07T09:53:42;101693.34;;;9.83;100.00
71907;BME280;59781;52.090;5.030;2023-04-07T09:56:11;101697.19;;;9.81;100.00
71907;BME280;59781;52.090;5.030;2023-04-07T09:58:38;101696.78;;;10.13;100.00
71907;BME280;59781;52.090;5.030;2023-04-07T10:01:08;101700.69;;;10.38;100.00
71907;BME280;59781;52.090;5.030;2023-04-07T10:03:36;101700.06;;;10.26;100.00
71907;BME280;59781;52.090;5.030;2023-04-07T10:06:03;101696.75;;;10.59;100.00
71907;BME280;59781;52.090;5.030;2023-04-07T10:08:35;101701.41;;;10.40;100.00
71907;BME280;59781;52.090;5.030;2023-04-07T10:11:04;101697.50;;;10.52;100.00
71907;BME280;59781;52.090;5.030;2023-04-07T10:13:35;101709.59;;;10.48;100.00
71907;BME280;59781;52.090;5.030;2023-04-07T10:16:05;101712.81;;;10.14;100.00
71907;BME280;59781;52.090;5.030;2023-04-07T10:18:34;101708.13;;;10.16;100.00
71907;BME280;59781;52.090;5.030;2023-04-07T10:21:03;101707.91;;;9.90;100.00
71907;BME280;59781;52.090;5.030;2023-04-07T10:24:06;101708.13;;;9.60;100.00
71907;BME280;59781;52.090;5.030;2023-04-07T10:26:38;101714.94;;;9.64;100.00
71907;BME280;59781;52.090;5.030;2023-04-07T10:29:09;101718.53;;;9.92;100.00
71907;BME280;59781;52.090;5.030;2023-04-07T10:31:40;101720.38;;;9.91;100.00
71907;BME280;59781;52.090;5.030;2023-04-07T10:34:06;101720.66;;;9.98;100.00
71907;BME280;59781;52.090;5.030;2023-04-07T10:40:27;101729.88;;;9.86;100.00
71907;BME280;59781;52.090;5.030;2023-04-07T10:42:53;101727.75;;;9.89;100.00
71907;BME280;59781;52.090;5.030;2023-04-07T10:48:18;101733.16;;;9.70;100.00
71907;BME280;59781;52.090;5.030;2023-04-07T10:53:31;101726.47;;;10.03;100.00
71907;BME280;59781;52.090;5.030;2023-04-07T10:55:58;101731.13;;;9.91;100.00
71907;BME280;59781;52.090;5.030;2023-04-07T10:58:28;101738.53;;;9.70;100.00
71907;BME280;59781;52.090;5.030;2023-04-07T11:03:26;101743.50;;;9.65;100.00
71907;BME280;59781;52.090;5.030;2023-04-07T11:06:10;101740.22;;;9.81;100.00
71907;BME280;59781;52.090;5.030;2023-04-07T11:08:45;101737.34;;;9.92;100.00
71907;BME280;59781;52.090;5.030;2023-04-07T11:11:20;101748.88;;;9.74;100.00
71907;BME280;59781;52.090;5.030;2023-04-07T11:14:01;101740.19;;;9.90;100.00
71907;BME280;59781;52.090;5.030;2023-04-07T11:16:41;101752.19;;;10.25;100.00
71907;BME280;59781;52.090;5.030;2023-04-07T11:19:08;101746.81;;;10.25;100.00
71907;BME280;59781;52.090;5.030;2023-04-07T11:21:34;101749.66;;;10.23;100.00
71907;BME280;59781;52.090;5.030;2023-04-07T11:24:01;101749.06;;;10.20;100.00
71907;BME280;59781;52.090;5.030;2023-04-07T11:26:27;101750.78;;;10.11;100.00
71907;BME280;59781;52.090;5.030;2023-04-07T11:28:54;101746.44;;;9.91;100.00
71907;BME280;59781;52.090;5.030;2023-04-07T11:31:26;101754.47;;;10.00;100.00
71907;BME280;59781;52.090;5.030;2023-04-07T11:33:54;101749.69;;;10.04;100.00
71907;BME280;59781;52.090;5.030;2023-04-07T11:36:26;101754.81;;;9.88;100.00
71907;BME280;59781;52.090;5.030;2023-04-07T11:39:01;101750.38;;;10.06;100.00
71907;BME280;59781;52.090;5.030;2023-04-07T11:52:49;101756.59;;;10.63;100.00
71907;BME280;59781;52.090;5.030;2023-04-07T11:55:19;101767.38;;;10.81;100.00
71907;BME280;59781;52.090;5.030;2023-04-07T12:01:42;101768.50;;;10.23;100.00
71907;BME280;59781;52.090;5.030;2023-04-07T12:04:12;101777.59;;;9.93;100.00
71907;BME280;59781;52.090;5.030;2023-04-07T12:06:43;101774.63;;;9.96;100.00
71907;BME280;59781;52.090;5.030;2023-04-07T12:09:31;101774.75;;;10.04;100.00
71907;BME280;59781;52.090;5.030;2023-04-07T12:12:04;101783.09;;;10.01;100.00
71907;BME280;59781;52.090;5.030;2023-04-07T12:14:32;101777.47;;;9.95;100.00
71907;BME280;59781;52.090;5.030;2023-04-07T12:16:58;101781.97;;;10.23;100.00
71907;BME280;59781;52.090;5.030;2023-04-07T12:19:27;101780.06;;;10.43;100.00
71907;BME280;59781;52.090;5.030;2023-04-07T12:21:54;101788.34;;;10.59;100.00
71907;BME280;59781;52.090;5.030;2023-04-07T12:24:20;101783.09;;;10.58;100.00
71907;BME280;59781;52.090;5.030;2023-04-07T12:26:46;101785.63;;;10.22;100.00
71907;BME280;59781;52.090;5.030;2023-04-07T12:29:12;101796.38;;;10.32;100.00
71907;BME280;59781;52.090;5.030;2023-04-07T12:31:38;101795.66;;;10.30;100.00
71907;BME280;59781;52.090;5.030;2023-04-07T12:34:05;101799.22;;;10.30;100.00
71907;BME280;59781;52.090;5.030;2023-04-07T12:36:30;101806.44;;;10.11;100.00
71907;BME280;59781;52.090;5.030;2023-04-07T12:38:56;101801.19;;;10.19;100.00
71907;BME280;59781;52.090;5.030;2023-04-07T12:41:24;101806.88;;;10.16;100.00
71907;BME280;59781;52.090;5.030;2023-04-07T12:43:50;101806.19;;;10.23;100.00
71907;BME280;59781;52.090;5.030;2023-04-07T12:46:16;101813.13;;;10.26;100.00
71907;BME280;59781;52.090;5.030;2023-04-07T12:48:42;101810.59;;;10.24;100.00
71907;BME280;59781;52.090;5.030;2023-04-07T12:51:08;101813.81;;;10.18;100.00
71907;BME280;59781;52.090;5.030;2023-04-07T12:53:34;101816.66;;;10.07;100.00
71907;BME280;59781;52.090;5.030;2023-04-07T12:56:00;101813.13;;;10.16;100.00
71907;BME280;59781;52.090;5.030;2023-04-07T12:58:26;101819.66;;;9.85;100.00
71907;BME280;59781;52.090;5.030;2023-04-07T13:00:52;101820.38;;;9.96;100.00
71907;BME280;59781;52.090;5.030;2023-04-07T13:03:18;101820.22;;;9.78;100.00
71907;BME280;59781;52.090;5.030;2023-04-07T13:05:44;101823.47;;;9.82;100.00
71907;BME280;59781;52.090;5.030;2023-04-07T13:08:10;101837.50;;;9.76;100.00
71907;BME280;59781;52.090;5.030;2023-04-07T13:10:36;101832.84;;;9.78;100.00
71907;BME280;59781;52.090;5.030;2023-04-07T13:13:01;101831.97;;;9.87;100.00
71907;BME280;59781;52.090;5.030;2023-04-07T13:15:27;101837.22;;;9.89;100.00
71907;BME280;59781;52.090;5.030;2023-04-07T13:17:53;101830.69;;;9.91;100.00
71907;BME280;59781;52.090;5.030;2023-04-07T13:20:20;101832.84;;;9.88;100.00
71907;BME280;59781;52.090;5.030;2023-04-07T13:22:46;101825.16;;;10.02;100.00
71907;BME280;59781;52.090;5.030;2023-04-07T13:25:13;101842.28;;;10.11;100.00
71907;BME280;59781;52.090;5.030;2023-04-07T13:27:38;101831.25;;;10.14;100.00
71907;BME280;59781;52.090;5.030;2023-04-07T13:30:05;101830.94;;;10.37;100.00
71907;BME280;59781;52.090;5.030;2023-04-07T13:32:31;101832.06;;;10.44;100.00
71907;BME280;59781;52.090;5.030;2023-04-07T13:34:57;101838.31;;;10.44;100.00
71907;BME280;59781;52.090;5.030;2023-04-07T13:37:24;101828.41;;;10.35;100.00
71907;BME280;59781;52.090;5.030;2023-04-07T13:39:51;101831.31;;;10.51;100.00
71907;BME280;59781;52.090;5.030;2023-04-07T13:42:17;101836.47;;;10.45;100.00
71907;BME280;59781;52.090;5.030;2023-04-07T13:44:44;101834.28;;;10.58;100.00
71907;BME280;59781;52.090;5.030;2023-04-07T13:47:12;101826.97;;;10.12;100.00
71907;BME280;59781;52.090;5.030;2023-04-07T13:49:45;101832.25;;;10.32;100.00
71907;BME280;59781;52.090;5.030;2023-04-07T13:52:11;101835.34;;;10.38;100.00
71907;BME280;59781;52.090;5.030;2023-04-07T13:54:38;101832.44;;;10.58;100.00
71907;BME280;59781;52.090;5.030;2023-04-07T13:57:04;101827.06;;;10.58;100.00
71907;BME280;59781;52.090;5.030;2023-04-07T13:59:30;101832.31;;;10.50;100.00
71907;BME280;59781;52.090;5.030;2023-04-07T14:01:55;101833.00;;;10.62;100.00
71907;BME280;59781;52.090;5.030;2023-04-07T14:04:21;101835.28;;;10.57;100.00
71907;BME280;59781;52.090;5.030;2023-04-07T14:06:47;101838.13;;;10.55;100.00
71907;BME280;59781;52.090;5.030;2023-04-07T14:09:13;101840.91;;;10.26;100.00
71907;BME280;59781;52.090;5.030;2023-04-07T14:11:38;101846.81;;;10.20;100.00
71907;BME280;59781;52.090;5.030;2023-04-07T14:14:04;101849.97;;;10.06;100.00
71907;BME280;59781;52.090;5.030;2023-04-07T14:16:31;101841.31;;;9.93;100.00
71907;BME280;59781;52.090;5.030;2023-04-07T14:18:56;101842.16;;;10.22;100.00
71907;BME280;59781;52.090;5.030;2023-04-07T14:21:23;101850.50;;;10.29;100.00
71907;BME280;59781;52.090;5.030;2023-04-07T14:23:49;101853.66;;;10.24;100.00
71907;BME280;59781;52.090;5.030;2023-04-07T14:26:17;101851.13;;;10.23;100.00
71907;BME280;59781;52.090;5.030;2023-04-07T14:28:42;101852.94;;;10.22;100.00
71907;BME280;59781;52.090;5.030;2023-04-07T14:31:12;101851.66;;;10.26;100.00
71907;BME280;59781;52.090;5.030;2023-04-07T14:33:43;101852.19;;;10.20;100.00
71907;BME280;59781;52.090;5.030;2023-04-07T14:36:09;101849.38;;;10.02;100.00
71907;BME280;59781;52.090;5.030;2023-04-07T14:38:35;101854.75;;;10.31;100.00
71907;BME280;59781;52.090;5.030;2023-04-07T14:41:01;101845.00;;;10.01;100.00
71907;BME280;59781;52.090;5.030;2023-04-07T14:43:28;101847.56;;;10.03;100.00
71907;BME280;59781;52.090;5.030;2023-04-07T14:45:54;101853.66;;;10.05;100.00
71907;BME280;59781;52.090;5.030;2023-04-07T14:48:21;101860.41;;;10.19;100.00
71907;BME280;59781;52.090;5.030;2023-04-07T14:50:47;101857.75;;;10.09;100.00
71907;BME280;59781;52.090;5.030;2023-04-07T14:53:13;101858.34;;;9.84;100.00
71907;BME280;59781;52.090;5.030;2023-04-07T14:55:41;101857.19;;;10.05;100.00
71907;BME280;59781;52.090;5.030;2023-04-07T14:58:07;101854.47;;;10.15;100.00
71907;BME280;59781;52.090;5.030;2023-04-07T15:00:33;101856.88;;;10.18;100.00
71907;BME280;59781;52.090;5.030;2023-04-07T15:02:59;101859.03;;;10.15;100.00
71907;BME280;59781;52.090;5.030;2023-04-07T15:05:25;101857.88;;;10.07;100.00
71907;BME280;59781;52.090;5.030;2023-04-07T15:07:53;101857.34;;;10.04;100.00
71907;BME280;59781;52.090;5.030;2023-04-07T15:10:19;101857.19;;;9.86;100.00
71907;BME280;59781;52.090;5.030;2023-04-07T15:12:46;101857.88;;;9.98;100.00
71907;BME280;59781;52.090;5.030;2023-04-07T15:15:13;101860.88;;;10.04;100.00
71907;BME280;59781;52.090;5.030;2023-04-07T15:17:40;101872.75;;;10.12;100.00
71907;BME280;59781;52.090;5.030;2023-04-07T15:20:07;101873.50;;;10.23;100.00
71907;BME280;59781;52.090;5.030;2023-04-07T15:22:34;101871.19;;;10.09;100.00
71907;BME280;59781;52.090;5.030;2023-04-07T15:25:01;101881.56;;;9.94;100.00
71907;BME280;59781;52.090;5.030;2023-04-07T15:27:28;101881.56;;;10.04;100.00
71907;BME280;59781;52.090;5.030;2023-04-07T15:29:54;101878.97;;;9.93;100.00
71907;BME280;59781;52.090;5.030;2023-04-07T15:32:20;101882.66;;;9.92;100.00
71907;BME280;59781;52.090;5.030;2023-04-07T15:34:46;101885.94;;;10.05;100.00
71907;BME280;59781;52.090;5.030;2023-04-07T15:37:12;101885.34;;;9.92;100.00
71907;BME280;59781;52.090;5.030;2023-04-07T15:39:38;101877.28;;;10.01;100.00
71907;BME280;59781;52.090;5.030;2023-04-07T15:42:04;101881.06;;;9.51;100.00
71907;BME280;59781;52.090;5.030;2023-04-07T15:44:34;101882.09;;;9.78;100.00
71907;BME280;59781;52.090;5.030;2023-04-07T15:47:07;101889.47;;;9.86;100.00
71907;BME280;59781;52.090;5.030;2023-04-07T15:49:34;101885.22;;;9.74;100.00
71907;BME280;59781;52.090;5.030;2023-04-07T15:52:04;101893.97;;;9.57;100.00
71907;BME280;59781;52.090;5.030;2023-04-07T15:54:30;101897.88;;;9.43;100.00
71907;BME280;59781;52.090;5.030;2023-04-07T15:56:57;101890.16;;;9.59;100.00
71907;BME280;59781;52.090;5.030;2023-04-07T15:59:23;101898.47;;;9.37;100.00
71907;BME280;59781;52.090;5.030;2023-04-07T16:01:48;101899.19;;;9.48;100.00
71907;BME280;59781;52.090;5.030;2023-04-07T16:06:50;101896.06;;;9.53;100.00
71907;BME280;59781;52.090;5.030;2023-04-07T16:09:16;101901.16;;;9.37;100.00
71907;BME280;59781;52.090;5.030;2023-04-07T16:11:42;101914.34;;;9.59;100.00
71907;BME280;59781;52.090;5.030;2023-04-07T16:14:08;101905.97;;;9.53;100.00
71907;BME280;59781;52.090;5.030;2023-04-07T16:16:35;101905.00;;;9.63;100.00
71907;BME280;59781;52.090;5.030;2023-04-07T16:19:01;101907.09;;;9.50;100.00
71907;BME280;59781;52.090;5.030;2023-04-07T16:21:27;101909.41;;;9.55;100.00
71907;BME280;59781;52.090;5.030;2023-04-07T16:23:53;101911.53;;;9.70;100.00
71907;BME280;59781;52.090;5.030;2023-04-07T16:26:18;101913.47;;;9.49;100.00
71907;BME280;59781;52.090;5.030;2023-04-07T16:32:40;101919.84;;;9.48;100.00
71907;BME280;59781;52.090;5.030;2023-04-07T16:35:10;101920.09;;;9.35;100.00
71907;BME280;59781;52.090;5.030;2023-04-07T16:37:40;101926.06;;;9.48;100.00
71907;BME280;59781;52.090;5.030;2023-04-07T16:40:08;101931.31;;;9.50;100.00
71907;BME280;59781;52.090;5.030;2023-04-07T16:42:35;101931.75;;;9.45;100.00
71907;BME280;59781;52.090;5.030;2023-04-07T16:48:55;101929.19;;;9.54;100.00
71907;BME280;59781;52.090;5.030;2023-04-07T16:51:20;101935.59;;;9.62;100.00
71907;BME280;59781;52.090;5.030;2023-04-07T16:53:46;101927.53;;;9.82;100.00
71907;BME280;59781;52.090;5.030;2023-04-07T16:56:17;101934.22;;;9.77;100.00
71907;BME280;59781;52.090;5.030;2023-04-07T16:58:43;101939.44;;;9.69;100.00
71907;BME280;59781;52.090;5.030;2023-04-07T17:01:09;101943.97;;;9.69;100.00
71907;BME280;59781;52.090;5.030;2023-04-07T17:03:36;101946.94;;;9.66;100.00
71907;BME280;59781;52.090;5.030;2023-04-07T17:06:02;101953.03;;;9.68;100.00
71907;BME280;59781;52.090;5.030;2023-04-07T17:08:32;101942.38;;;9.57;100.00
71907;BME280;59781;52.090;5.030;2023-04-07T17:11:08;101951.88;;;9.70;100.00
71907;BME280;59781;52.090;5.030;2023-04-07T17:13:35;101940.47;;;10.07;100.00
71907;BME280;59781;52.090;5.030;2023-04-07T17:16:02;101954.03;;;9.76;100.00
71907;BME280;59781;52.090;5.030;2023-04-07T17:18:31;101958.28;;;9.79;100.00
71907;BME280;59781;52.090;5.030;2023-04-07T17:20:58;101966.22;;;9.81;100.00
71907;BME280;59781;52.090;5.030;2023-04-07T17:25:59;101965.22;;;9.91;100.00
71907;BME280;59781;52.090;5.030;2023-04-07T17:28:25;101971.34;;;9.93;100.00
71907;BME280;59781;52.090;5.030;2023-04-07T17:30:54;101973.03;;;9.85;100.00
71907;BME280;59781;52.090;5.030;2023-04-07T17:33:20;101972.22;;;9.54;100.00
71907;BME280;59781;52.090;5.030;2023-04-07T17:39:11;101982.06;;;9.74;100.00
71907;BME280;59781;52.090;5.030;2023-04-07T17:41:37;101983.09;;;10.02;100.00
71907;BME280;59781;52.090;5.030;2023-04-07T17:44:03;101980.81;;;9.88;100.00
71907;BME280;59781;52.090;5.030;2023-04-07T17:46:29;101987.59;;;9.82;100.00
71907;BME280;59781;52.090;5.030;2023-04-07T17:48:55;101985.47;;;9.76;100.00
71907;BME280;59781;52.090;5.030;2023-04-07T17:51:24;101987.28;;;9.66;100.00
71907;BME280;59781;52.090;5.030;2023-04-07T17:53:51;101984.59;;;9.66;100.00
71907;BME280;59781;52.090;5.030;2023-04-07T17:56:18;101985.28;;;9.68;100.00
71907;BME280;59781;52.090;5.030;2023-04-07T17:58:45;101996.53;;;9.42;100.00
71907;BME280;59781;52.090;5.030;2023-04-07T18:01:11;101996.66;;;9.41;100.00
71907;BME280;59781;52.090;5.030;2023-04-07T18:03:37;101999.09;;;9.54;100.00
71907;BME280;59781;52.090;5.030;2023-04-07T18:06:03;102002.22;;;9.49;100.00
71907;BME280;59781;52.090;5.030;2023-04-07T18:08:31;102009.19;;;9.61;100.00
71907;BME280;59781;52.090;5.030;2023-04-07T18:10:57;102009.19;;;9.61;100.00
71907;BME280;59781;52.090;5.030;2023-04-07T18:13:23;102014.00;;;9.58;100.00
71907;BME280;59781;52.090;5.030;2023-04-07T18:15:49;102018.63;;;9.46;100.00
71907;BME280;59781;52.090;5.030;2023-04-07T18:18:15;102023.31;;;9.23;100.00
71907;BME280;59781;52.090;5.030;2023-04-07T18:20:40;102022.69;;;9.40;100.00
71907;BME280;59781;52.090;5.030;2023-04-07T18:23:07;102024.50;;;9.30;100.00
71907;BME280;59781;52.090;5.030;2023-04-07T18:25:34;102028.97;;;9.20;100.00
71907;BME280;59781;52.090;5.030;2023-04-07T18:28:00;102034.84;;;9.14;100.00